Edwards Air Force Base
KEDW : now visible

Airfield :











YOU CAN JOIN US ON...

 
LOGIN :

Register | Disclaimer

   EN    FR    IT 

 









Legend :    VFR   Marginal VFR   IFR   Intensive IFR   Very Intensive IFR
Visi :
Ceiling :
>= 8 km
>= 3000ft
5 to 8 km
1000 to 3000 ft
1500m to 5 km
500 to 1000 ft
800 to 1500m
200 to 500 ft
< 800m
< 200 ft
Symbols :   Thunderstorms  Fog  Heavy snow  Heavy precipitations  Wind > 20 kt






- Airport Elevation : 2312 ft


KEDW - Edwards Air Force Base

CURRENT METAR :
  • 212255Z 33005KT 50SM FEW050 33/M02 A2989 RMK AO2A SLP101 T03251018

EXPIRED METARs :
  • 212155Z 34005KT 50SM FEW050 32/M01 A2992 RMK AO2A SLP111 T03211009
  • 212055Z 00000KT 50SM FEW050 31/02 A2995 RMK AO2A SLP122 T03060019 57026
  • 211955Z 04003KT 50SM FEW050 29/03 A2998 RMK AO2A SLP133 T02870028
  • 211855Z AUTO 06003KT 10SM CLR 27/05 A3001 RMK AO2 SLP143 T02650049

Expired Forecast.
KZLA FIR / North America



MET'MAP, your aeronautical weather chart ! - Copyright ORBIFLY December 2007 - Disclaimer

ORBIFLY MET'MAP TEAM :

Programming & Development : Alexandra Zaïnal
Original concept : Baudouin d'Aumeries
Technical & hardware support : Manuel Goepfert
Assistance : Marc-Olivier Méhu




SOURCES & CREDITS :

   NOAA       Earth
Advisory